Time;durP1;ratioP1;P1;durP2;ratioP2;P2;SDS_P1;SDS_P2;PMS_P1;PMS_P2;Temp;Humidity;BMP_temperature;BMP_pressure;BME280_temperature;BME280_humidity;BME280_pressure;Samples;Min_cycle;Max_cycle;Signal;HPM_P1;HPM_P2
2021/05/01 00:00:40;;;;;;;0.77;0.77;;;21.80;47.30;;;;;;5108200;28;20509;-39
2021/05/01 00:03:06;;;;;;;0.70;0.70;;;21.80;47.70;;;;;;5099083;28;20553;-39
2021/05/01 00:05:31;;;;;;;3.05;0.70;;;21.80;47.20;;;;;;5090786;28;20147;-40
2021/05/01 00:07:57;;;;;;;0.80;0.80;;;21.80;47.30;;;;;;5109160;28;20032;-40
2021/05/01 00:10:22;;;;;;;0.77;0.70;;;21.80;47.40;;;;;;5111275;28;20493;-39
2021/05/01 00:12:48;;;;;;;0.73;0.70;;;21.70;47.50;;;;;;5109734;28;20059;-39
2021/05/01 00:15:14;;;;;;;1.60;0.95;;;21.60;47.50;;;;;;5109301;28;20039;-40
2021/05/01 00:17:39;;;;;;;0.68;0.68;;;21.60;47.60;;;;;;5107147;28;20059;-40
2021/05/01 00:20:06;;;;;;;0.57;0.57;;;21.60;47.70;;;;;;5107527;28;20040;-41
2021/05/01 00:22:31;;;;;;;1.77;0.65;;;21.70;47.50;;;;;;5108850;28;20024;-39
2021/05/01 00:24:57;;;;;;;0.57;0.57;;;21.70;47.30;;;;;;5110201;28;20115;-39
2021/05/01 00:27:22;;;;;;;0.95;0.93;;;21.60;48.00;;;;;;5108889;28;20377;-39
2021/05/01 00:29:48;;;;;;;0.75;0.63;;;21.70;47.50;;;;;;5109289;28;20024;-41
2021/05/01 00:32:13;;;;;;;0.65;0.65;;;21.70;47.30;;;;;;5108831;28;20068;-40
2021/05/01 00:34:39;;;;;;;0.80;0.60;;;21.70;47.20;;;;;;5108393;28;20063;-39
2021/05/01 00:37:05;;;;;;;0.70;0.70;;;21.70;48.00;;;;;;5109758;28;20413;-41
2021/05/01 00:39:30;;;;;;;3.72;0.70;;;21.70;47.20;;;;;;5108443;28;20047;-40
2021/05/01 00:41:56;;;;;;;0.77;0.77;;;21.70;47.90;;;;;;5106392;28;20528;-39
2021/05/01 00:44:21;;;;;;;0.80;0.80;;;21.70;47.30;;;;;;5091931;28;20500;-39
2021/05/01 00:46:47;;;;;;;0.60;0.60;;;21.70;47.40;;;;;;5105756;28;20016;-40
2021/05/01 00:49:13;;;;;;;0.70;0.70;;;21.70;47.30;;;;;;5110446;28;20060;-45
2021/05/01 00:51:38;;;;;;;0.60;0.60;;;21.70;47.20;;;;;;5108946;28;20428;-42
2021/05/01 00:54:04;;;;;;;1.10;0.98;;;21.70;47.20;;;;;;5108755;28;20109;-40
2021/05/01 00:56:30;;;;;;;0.60;0.60;;;21.70;47.20;;;;;;5108837;28;20039;-40
2021/05/01 00:58:55;;;;;;;0.70;0.70;;;21.70;47.20;;;;;;5107156;28;20036;-40
2021/05/01 01:01:23;;;;;;;0.70;0.70;;;21.70;47.20;;;;;;5093425;28;20027;-43
2021/05/01 01:03:49;;;;;;;0.98;0.68;;;21.70;47.10;;;;;;5108027;28;20020;-41
2021/05/01 01:06:14;;;;;;;0.60;0.60;;;21.70;47.30;;;;;;5108919;28;20076;-42
2021/05/01 01:08:41;;;;;;;0.65;0.65;;;21.70;47.20;;;;;;5106467;28;20070;-40
2021/05/01 01:11:07;;;;;;;0.60;0.60;;;21.70;47.80;;;;;;5108878;28;20146;-35
2021/05/01 01:13:32;;;;;;;0.80;0.80;;;21.70;47.10;;;;;;5090566;28;20509;-40
2021/05/01 01:15:58;;;;;;;0.55;0.55;;;21.70;47.20;;;;;;5112526;28;20059;-40
2021/05/01 01:18:23;;;;;;;0.70;0.70;;;21.70;47.20;;;;;;5111496;28;20027;-39
2021/05/01 01:20:49;;;;;;;0.50;0.50;;;21.70;47.20;;;;;;5111633;28;20047;-40
2021/05/01 01:23:14;;;;;;;0.95;0.60;;;21.70;47.10;;;;;;5112841;28;20036;-40
2021/05/01 01:25:40;;;;;;;0.80;0.73;;;21.70;47.20;;;;;;5111758;28;20489;-39
2021/05/01 01:28:06;;;;;;;1.08;0.60;;;21.60;47.30;;;;;;5114505;28;20031;-40
2021/05/01 01:30:32;;;;;;;0.60;0.57;;;21.70;47.30;;;;;;5096132;28;20024;-39
2021/05/01 01:33:06;;;;;;;4.13;0.85;;;21.70;47.20;;;;;;5094953;28;20031;-39
2021/05/01 01:35:32;;;;;;;0.93;0.70;;;21.70;47.20;;;;;;5108273;28;20047;-40
2021/05/01 01:37:58;;;;;;;0.95;0.70;;;21.70;47.80;;;;;;5111562;28;20493;-40
2021/05/01 01:40:23;;;;;;;0.63;0.63;;;21.70;47.20;;;;;;5113548;28;20038;-41
2021/05/01 01:42:49;;;;;;;0.65;0.65;;;21.60;47.20;;;;;;5112959;28;20501;-40
2021/05/01 01:45:17;;;;;;;0.70;0.70;;;21.60;47.30;;;;;;5109850;28;20031;-40
2021/05/01 01:47:43;;;;;;;0.80;0.80;;;21.60;47.30;;;;;;5094704;28;20016;-41
2021/05/01 01:50:11;;;;;;;0.63;0.63;;;21.60;47.30;;;;;;5093447;28;20032;-40
2021/05/01 01:52:37;;;;;;;0.73;0.73;;;21.60;47.30;;;;;;5111807;28;20085;-39
2021/05/01 01:55:07;;;;;;;0.65;0.65;;;21.50;48.10;;;;;;5114512;28;20102;-40
2021/05/01 01:57:32;;;;;;;0.80;0.80;;;21.60;47.50;;;;;;5092261;28;20043;-40
2021/05/01 01:59:58;;;;;;;1.00;0.80;;;21.50;47.50;;;;;;5111992;28;20120;-39
2021/05/01 02:02:24;;;;;;;0.80;0.80;;;21.60;47.40;;;;;;5111383;28;20020;-38
2021/05/01 02:04:49;;;;;;;0.60;0.60;;;21.70;48.10;;;;;;5085997;28;20432;-41
2021/05/01 02:07:15;;;;;;;0.60;0.60;;;21.60;47.50;;;;;;5107945;28;20115;-43
2021/05/01 02:09:40;;;;;;;0.70;0.70;;;21.60;47.60;;;;;;5106000;28;20405;-40
2021/05/01 02:12:06;;;;;;;0.70;0.70;;;21.50;47.70;;;;;;5109443;28;20051;-39
2021/05/01 02:14:31;;;;;;;0.80;0.80;;;21.50;47.70;;;;;;5106838;28;20027;-41
2021/05/01 02:16:57;;;;;;;0.90;0.90;;;21.50;47.70;;;;;;5104492;28;20027;-40
2021/05/01 02:19:23;;;;;;;0.70;0.70;;;21.50;48.40;;;;;;5104467;28;20030;-42
2021/05/01 02:21:48;;;;;;;0.77;0.77;;;21.50;47.70;;;;;;5107067;28;20024;-45
2021/05/01 02:24:14;;;;;;;0.75;0.75;;;21.50;47.80;;;;;;5109791;28;20042;-40
2021/05/01 02:26:40;;;;;;;0.75;0.75;;;21.50;47.60;;;;;;5103874;28;20024;-40
2021/05/01 02:29:05;;;;;;;0.63;0.63;;;21.60;47.50;;;;;;5109680;28;20707;-40
2021/05/01 02:31:31;;;;;;;0.52;0.52;;;21.60;47.50;;;;;;5111535;28;20031;-40
2021/05/01 02:33:56;;;;;;;0.60;0.60;;;21.50;47.70;;;;;;5110656;28;20108;-39
2021/05/01 02:36:22;;;;;;;0.80;0.80;;;21.60;47.60;;;;;;5109075;28;20084;-40
2021/05/01 02:38:48;;;;;;;0.85;0.60;;;21.60;47.50;;;;;;5110394;28;20066;-41
2021/05/01 02:41:13;;;;;;;0.70;0.70;;;21.60;47.40;;;;;;5110911;28;20068;-41
2021/05/01 02:43:39;;;;;;;0.70;0.70;;;21.50;47.50;;;;;;5111095;28;20038;-40
2021/05/01 02:46:04;;;;;;;0.60;0.60;;;21.60;47.40;;;;;;5111261;28;20028;-43
2021/05/01 02:48:30;;;;;;;0.70;0.70;;;21.60;47.30;;;;;;5110835;28;20510;-43
2021/05/01 02:50:56;;;;;;;0.73;0.73;;;21.50;47.30;;;;;;5110422;28;20473;-40
2021/05/01 02:53:21;;;;;;;0.68;0.68;;;21.50;47.50;;;;;;5088093;28;20106;-41
2021/05/01 02:55:48;;;;;;;0.80;0.80;;;21.50;47.50;;;;;;5082469;28;20073;-39
2021/05/01 02:58:14;;;;;;;0.60;0.60;;;21.50;47.50;;;;;;5087218;28;20032;-41
2021/05/01 03:00:40;;;;;;;0.75;0.75;;;21.50;47.60;;;;;;5107929;28;20035;-41
2021/05/01 03:03:06;;;;;;;0.70;0.70;;;21.50;48.30;;;;;;5105489;28;20027;-41
2021/05/01 03:05:31;;;;;;;0.80;0.80;;;21.50;47.60;;;;;;5109368;28;20055;-41
2021/05/01 03:07:57;;;;;;;0.90;0.90;;;21.50;47.60;;;;;;5109337;28;20077;-45
2021/05/01 03:10:26;;;;;;;0.70;0.70;;;21.50;47.50;;;;;;5112870;28;20481;-43
2021/05/01 03:12:52;;;;;;;0.70;0.70;;;21.50;47.50;;;;;;5107145;28;20032;-42
2021/05/01 03:15:18;;;;;;;0.70;0.70;;;21.50;47.30;;;;;;5105218;28;20031;-40
2021/05/01 03:17:44;;;;;;;1.02;0.75;;;21.50;47.40;;;;;;5104635;28;20103;-41
2021/05/01 03:20:10;;;;;;;0.63;0.63;;;21.40;47.40;;;;;;5110127;28;20088;-40
2021/05/01 03:22:35;;;;;;;0.68;0.68;;;21.40;47.40;;;;;;5109891;28;20062;-40
2021/05/01 03:25:02;;;;;;;0.85;0.63;;;21.50;47.50;;;;;;5107928;28;20059;-39
2021/05/01 03:27:27;;;;;;;0.80;0.80;;;21.40;47.40;;;;;;5085182;28;20510;-41
2021/05/01 03:29:53;;;;;;;0.80;0.80;;;21.50;47.40;;;;;;5105860;28;20055;-40
2021/05/01 03:32:19;;;;;;;0.73;0.73;;;21.40;47.40;;;;;;5105320;28;20436;-40
2021/05/01 03:34:44;;;;;;;0.82;0.82;;;21.40;47.40;;;;;;5106238;28;20042;-40
2021/05/01 03:37:11;;;;;;;0.70;0.70;;;21.40;47.40;;;;;;5103250;28;20052;-40
2021/05/01 03:39:36;;;;;;;0.90;0.90;;;21.40;47.60;;;;;;5104701;28;20565;-41
2021/05/01 03:42:02;;;;;;;1.08;0.60;;;21.40;47.40;;;;;;5106481;28;20094;-38
2021/05/01 03:44:28;;;;;;;0.77;0.77;;;21.50;47.40;;;;;;5104652;28;20053;-40
2021/05/01 03:46:54;;;;;;;0.73;0.70;;;21.40;47.30;;;;;;5090703;28;20063;-43
2021/05/01 03:49:20;;;;;;;0.75;0.75;;;21.50;47.20;;;;;;5110817;28;20119;-40
2021/05/01 03:51:45;;;;;;;0.68;0.68;;;21.40;47.20;;;;;;5107545;28;20107;-42
2021/05/01 03:54:11;;;;;;;0.65;0.65;;;21.50;47.10;;;;;;5105995;28;20034;-41
2021/05/01 03:56:36;;;;;;;0.70;0.70;;;21.50;47.20;;;;;;5101626;28;20028;-40
2021/05/01 03:59:02;;;;;;;1.02;0.90;;;21.40;47.20;;;;;;5102119;28;20560;-41
2021/05/01 04:01:28;;;;;;;0.93;0.93;;;21.40;47.30;;;;;;5105994;28;20027;-38
2021/05/01 04:03:53;;;;;;;0.70;0.70;;;21.40;47.40;;;;;;5089242;28;20504;-38
2021/05/01 04:06:19;;;;;;;0.90;0.90;;;21.40;47.30;;;;;;5102468;28;20029;-43
2021/05/01 04:08:45;;;;;;;0.82;0.82;;;21.40;47.40;;;;;;5102335;28;20466;-42
2021/05/01 04:11:11;;;;;;;0.90;0.90;;;21.40;47.90;;;;;;5094921;28;20447;-39
2021/05/01 04:13:46;;;;;;;2.95;0.90;;;21.40;47.30;;;;;;5095152;28;20024;-44
2021/05/01 04:16:12;;;;;;;0.82;0.82;;;21.40;47.20;;;;;;5101706;28;20051;-41
2021/05/01 04:18:38;;;;;;;1.00;0.80;;;21.50;47.10;;;;;;5104183;28;20047;-40
2021/05/01 04:21:04;;;;;;;0.60;0.60;;;21.40;47.00;;;;;;5104318;28;20040;-39
2021/05/01 04:23:29;;;;;;;0.80;0.80;;;21.40;47.00;;;;;;5100835;28;20013;-41
2021/05/01 04:25:55;;;;;;;1.00;1.00;;;21.40;47.10;;;;;;5102659;28;20031;-40
2021/05/01 04:28:20;;;;;;;1.00;1.00;;;21.50;47.10;;;;;;5068071;28;20011;-41
2021/05/01 04:30:46;;;;;;;0.60;0.60;;;21.40;47.70;;;;;;5106908;28;20116;-40
2021/05/01 04:33:11;;;;;;;1.02;0.80;;;21.40;47.00;;;;;;5104272;28;20020;-41
2021/05/01 04:35:37;;;;;;;0.85;0.85;;;21.50;47.20;;;;;;5103738;28;20063;-41
2021/05/01 04:38:02;;;;;;;0.80;0.80;;;21.40;47.10;;;;;;5102854;28;20063;-40
2021/05/01 04:40:28;;;;;;;1.05;0.73;;;21.40;47.00;;;;;;5101990;28;20031;-41
2021/05/01 04:42:59;;;;;;;0.70;0.70;;;21.40;47.00;;;;;;5105317;28;20027;-40
2021/05/01 04:45:25;;;;;;;0.70;0.70;;;21.40;47.10;;;;;;5088689;28;20040;-42
2021/05/01 04:47:51;;;;;;;0.80;0.80;;;21.40;47.20;;;;;;5105727;28;20472;-40
2021/05/01 04:50:17;;;;;;;0.60;0.60;;;21.40;47.20;;;;;;5087561;28;20022;-40
2021/05/01 04:52:42;;;;;;;0.80;0.73;;;21.40;47.20;;;;;;5091575;28;20126;-41
2021/05/01 04:55:13;;;;;;;0.60;0.60;;;21.30;47.80;;;;;;5105420;28;20024;-41
2021/05/01 04:57:43;;;;;;;2.05;0.80;;;21.40;47.20;;;;;;5107623;28;20061;-41
2021/05/01 05:00:09;;;;;;;0.88;0.70;;;21.40;47.90;;;;;;5108649;28;20072;-42
2021/05/01 05:02:35;;;;;;;1.70;0.70;;;21.30;47.20;;;;;;5106587;28;20070;-39
2021/05/01 05:05:01;;;;;;;0.82;0.82;;;21.40;47.20;;;;;;5104692;28;20028;-40
2021/05/01 05:07:27;;;;;;;0.90;0.90;;;21.40;47.10;;;;;;5107665;28;20035;-39
2021/05/01 05:09:52;;;;;;;1.10;1.00;;;21.40;47.20;;;;;;5107738;28;20024;-42
2021/05/01 05:12:18;;;;;;;0.80;0.80;;;21.40;47.10;;;;;;5107050;28;20061;-42
2021/05/01 05:14:44;;;;;;;0.80;0.80;;;21.40;47.20;;;;;;5106389;28;20028;-42
2021/05/01 05:17:09;;;;;;;0.80;0.80;;;21.40;47.10;;;;;;5103922;28;20064;-41
2021/05/01 05:19:35;;;;;;;0.80;0.80;;;21.50;47.10;;;;;;5107368;28;20102;-40
2021/05/01 05:22:00;;;;;;;0.80;0.80;;;21.40;47.00;;;;;;5108361;28;20092;-43
2021/05/01 05:24:26;;;;;;;0.70;0.70;;;21.30;47.20;;;;;;5106825;28;20027;-39
2021/05/01 05:26:51;;;;;;;0.82;0.82;;;21.30;47.30;;;;;;5106375;28;20027;-40
2021/05/01 05:29:17;;;;;;;0.80;0.80;;;21.20;47.50;;;;;;5105102;28;20027;-41
2021/05/01 05:31:44;;;;;;;0.63;0.63;;;21.20;47.70;;;;;;5107958;28;20031;-41
2021/05/01 05:34:09;;;;;;;0.70;0.70;;;21.20;47.90;;;;;;5108709;28;20087;-40
2021/05/01 05:36:35;;;;;;;1.10;1.10;;;21.20;47.90;;;;;;5107992;28;20499;-44
2021/05/01 05:39:01;;;;;;;0.90;0.90;;;21.20;48.00;;;;;;5107537;28;20027;-41
2021/05/01 05:41:28;;;;;;;0.90;0.90;;;21.20;48.00;;;;;;5103906;28;20568;-44
2021/05/01 05:43:54;;;;;;;0.95;0.95;;;21.20;48.10;;;;;;5108492;28;20088;-42
2021/05/01 05:46:19;;;;;;;0.90;0.90;;;21.10;48.20;;;;;;5113632;28;20069;-41
2021/05/01 05:48:45;;;;;;;1.17;1.17;;;21.10;48.10;;;;;;5109728;28;20031;-40
2021/05/01 05:51:10;;;;;;;1.13;1.13;;;21.10;48.10;;;;;;5108689;28;20028;-41
2021/05/01 05:53:36;;;;;;;0.90;0.90;;;21.20;48.10;;;;;;5100086;28;20032;-40
2021/05/01 05:56:02;;;;;;;0.85;0.85;;;21.20;48.20;;;;;;5101602;28;20493;-41
2021/05/01 05:58:27;;;;;;;0.80;0.80;;;21.20;48.00;;;;;;5103081;28;20484;-40
2021/05/01 06:00:53;;;;;;;0.90;0.90;;;21.20;48.20;;;;;;5105632;28;20120;-41
2021/05/01 06:03:19;;;;;;;0.85;0.85;;;21.20;48.30;;;;;;5102172;28;20020;-41
2021/05/01 06:05:52;;;;;;;0.90;0.90;;;21.10;48.40;;;;;;5107591;28;20028;-41
2021/05/01 06:08:17;;;;;;;0.93;0.70;;;21.20;48.30;;;;;;5081410;28;20378;-43
2021/05/01 06:10:43;;;;;;;0.80;0.80;;;21.10;48.20;;;;;;5104833;28;20042;-39
2021/05/01 06:13:09;;;;;;;0.93;0.93;;;21.10;48.60;;;;;;5107821;28;20073;-43
2021/05/01 06:15:35;;;;;;;1.00;0.90;;;21.20;49.30;;;;;;5071598;28;20040;-41
2021/05/01 06:18:00;;;;;;;1.70;1.15;;;21.30;49.00;;;;;;5085546;28;20027;-40
2021/05/01 06:20:27;;;;;;;1.30;1.30;;;21.40;48.70;;;;;;5088300;28;20061;-39
2021/05/01 06:22:53;;;;;;;0.90;0.90;;;21.40;48.80;;;;;;5103799;28;20150;-41
2021/05/01 06:25:19;;;;;;;0.77;0.77;;;21.30;49.40;;;;;;5106612;28;20441;-40
2021/05/01 06:27:45;;;;;;;0.95;0.95;;;21.40;48.80;;;;;;5104689;28;20027;-39
2021/05/01 06:30:12;;;;;;;2.15;1.30;;;21.40;48.70;;;;;;5109186;28;20034;-39
2021/05/01 06:32:38;;;;;;;1.75;1.65;;;21.40;48.60;;;;;;5076181;28;20036;-39
2021/05/01 06:35:05;;;;;;;2.28;1.70;;;21.40;48.30;;;;;;5089716;28;20030;-39
2021/05/01 06:37:30;;;;;;;1.80;1.70;;;21.50;48.10;;;;;;5076918;28;20123;-40
2021/05/01 06:39:58;;;;;;;2.05;1.95;;;21.50;47.90;;;;;;5079926;28;20122;-41
2021/05/01 06:42:26;;;;;;;1.58;1.48;;;21.50;47.80;;;;;;5102429;28;20047;-41
2021/05/01 06:45:03;;;;;;;1.65;1.55;;;21.50;47.70;;;;;;5095950;28;20027;-41
2021/05/01 06:47:30;;;;;;;1.90;1.80;;;21.50;47.50;;;;;;5099315;28;20039;-42
2021/05/01 06:50:10;;;;;;;2.05;1.60;;;21.50;47.40;;;;;;5096464;28;20039;-41
2021/05/01 06:52:39;;;;;;;1.77;1.67;;;21.50;47.30;;;;;;5075911;28;20496;-40
2021/05/01 06:55:06;;;;;;;1.90;1.80;;;21.50;47.30;;;;;;5098803;28;20034;-43
2021/05/01 06:57:31;;;;;;;1.88;1.77;;;21.50;47.20;;;;;;5079094;28;20098;-39
2021/05/01 06:59:58;;;;;;;2.35;2.15;;;21.50;47.20;;;;;;5075523;28;20096;-40
2021/05/01 07:02:28;;;;;;;2.60;2.22;;;21.50;47.20;;;;;;5094984;28;20039;-40
2021/05/01 07:04:55;;;;;;;2.20;1.60;;;21.50;47.20;;;;;;5076643;28;20068;-39
2021/05/01 07:07:22;;;;;;;1.77;1.67;;;21.50;47.10;;;;;;5094057;28;20402;-40
2021/05/01 07:09:48;;;;;;;1.98;1.88;;;21.50;47.10;;;;;;5098861;28;20024;-39
2021/05/01 07:12:13;;;;;;;1.63;1.50;;;21.50;47.00;;;;;;5066437;28;20028;-39
2021/05/01 07:14:41;;;;;;;2.00;1.90;;;21.50;47.70;;;;;;5094816;28;20058;-40
2021/05/01 07:17:06;;;;;;;1.70;1.60;;;21.50;47.00;;;;;;5094002;28;20027;-36
2021/05/01 07:19:32;;;;;;;1.92;1.50;;;21.50;47.20;;;;;;5078561;28;20039;-41
2021/05/01 07:21:58;;;;;;;1.77;1.67;;;21.40;47.30;;;;;;5096788;28;20035;-41
2021/05/01 07:24:24;;;;;;;1.70;1.60;;;21.40;47.20;;;;;;5095693;28;20103;-40
2021/05/01 07:26:49;;;;;;;1.70;1.60;;;21.50;47.30;;;;;;5096848;28;20042;-41
2021/05/01 07:29:15;;;;;;;1.48;1.38;;;21.50;47.20;;;;;;5063553;28;20031;-42
2021/05/01 07:31:41;;;;;;;1.38;1.27;;;21.40;47.30;;;;;;5076949;28;20034;-41
2021/05/01 07:34:09;;;;;;;1.17;1.17;;;21.40;47.40;;;;;;5095267;28;20046;-42
2021/05/01 07:36:39;;;;;;;1.13;1.10;;;21.30;47.60;;;;;;5096110;28;20031;-39
2021/05/01 07:39:09;;;;;;;1.23;1.13;;;21.30;47.60;;;;;;5076690;28;20158;-40
2021/05/01 07:41:36;;;;;;;1.13;1.13;;;21.30;47.60;;;;;;5080030;28;20107;-41
2021/05/01 07:44:01;;;;;;;1.15;1.10;;;21.30;47.60;;;;;;5075415;28;21001;-41
2021/05/01 07:46:27;;;;;;;2.42;1.10;;;21.20;47.70;;;;;;5079270;28;20031;-41
2021/05/01 07:48:53;;;;;;;1.10;1.10;;;21.30;47.70;;;;;;5095551;28;20107;-40
2021/05/01 07:51:19;;;;;;;1.00;1.00;;;21.30;47.70;;;;;;5077043;28;20043;-41
2021/05/01 07:53:44;;;;;;;1.13;1.10;;;21.30;47.70;;;;;;5090930;28;20036;-40
2021/05/01 07:56:11;;;;;;;0.80;0.80;;;21.20;47.80;;;;;;5077360;28;20028;-42
2021/05/01 07:58:37;;;;;;;0.90;0.90;;;21.10;48.00;;;;;;5091051;28;20498;-42
2021/05/01 08:01:03;;;;;;;0.80;0.80;;;21.10;47.90;;;;;;5092105;28;20040;-41
2021/05/01 08:03:28;;;;;;;0.77;0.77;;;21.10;48.00;;;;;;5091274;28;20028;-40
2021/05/01 08:05:54;;;;;;;1.27;1.17;;;21.10;48.70;;;;;;5061751;28;20028;-41
2021/05/01 08:08:19;;;;;;;0.80;0.80;;;21.10;48.00;;;;;;5074466;28;20055;-40
2021/05/01 08:10:45;;;;;;;1.10;1.00;;;21.20;47.80;;;;;;5087383;28;20728;-43
2021/05/01 08:13:11;;;;;;;1.05;1.05;;;21.30;48.50;;;;;;5090904;28;20024;-41
2021/05/01 08:15:37;;;;;;;0.98;0.98;;;21.20;47.90;;;;;;5095651;28;20051;-40
2021/05/01 08:18:04;;;;;;;1.00;1.00;;;21.10;48.10;;;;;;5091344;28;20068;-41
2021/05/01 08:20:30;;;;;;;1.17;1.08;;;21.10;48.30;;;;;;5073247;28;20099;-40
2021/05/01 08:22:56;;;;;;;0.77;0.77;;;21.10;48.20;;;;;;5093725;28;20031;-41
2021/05/01 08:25:22;;;;;;;1.20;1.10;;;21.00;48.40;;;;;;5074752;28;20028;-39
2021/05/01 08:27:47;;;;;;;1.33;1.23;;;21.10;48.20;;;;;;5097046;28;20039;-43
2021/05/01 08:30:15;;;;;;;1.08;1.08;;;21.20;48.20;;;;;;5099928;28;20031;-43
2021/05/01 08:32:42;;;;;;;2.35;1.20;;;21.20;48.20;;;;;;4742768;28;10000933;-41
2021/05/01 08:35:08;;;;;;;1.27;1.10;;;21.20;48.10;;;;;;5101323;28;20055;-42
2021/05/01 08:37:34;;;;;;;1.08;0.98;;;21.20;48.20;;;;;;5103805;28;20070;-39
2021/05/01 08:39:59;;;;;;;1.42;1.33;;;21.40;48.50;;;;;;5102568;27;20042;-48
2021/05/01 08:42:25;;;;;;;1.00;1.00;;;21.30;47.90;;;;;;5094733;28;20170;-38
2021/05/01 08:44:51;;;;;;;2.55;0.93;;;21.50;48.10;;;;;;5061226;28;20051;-41
2021/05/01 08:47:17;;;;;;;1.20;1.20;;;21.50;48.50;;;;;;5101880;28;20467;-41
2021/05/01 08:49:42;;;;;;;1.10;1.10;;;21.50;49.00;;;;;;5098956;28;20867;-41
2021/05/01 08:52:09;;;;;;;1.10;1.10;;;21.60;48.60;;;;;;5093504;28;20032;-37
2021/05/01 08:54:34;;;;;;;2.50;1.65;;;21.70;48.40;;;;;;5096005;28;20080;-39
2021/05/01 08:57:00;;;;;;;1.45;1.35;;;21.60;48.40;;;;;;5089127;28;20892;-42
2021/05/01 08:59:25;;;;;;;1.92;1.45;;;21.80;48.60;;;;;;5078874;28;20063;-39
2021/05/01 09:01:51;;;;;;;2.67;2.40;;;21.70;47.90;;;;;;5086846;28;20075;-42
2021/05/01 09:04:17;;;;;;;5.03;2.75;;;21.80;46.60;;;;;;5092715;28;20087;-40
2021/05/01 09:06:42;;;;;;;3.75;3.55;;;21.80;44.30;;;;;;5073121;28;20044;-40
2021/05/01 09:09:09;;;;;;;2.83;2.67;;;21.80;43.40;;;;;;5076440;28;20110;-38
2021/05/01 09:11:38;;;;;;;2.55;2.05;;;21.70;46.80;;;;;;5087732;28;20096;-41
2021/05/01 09:14:24;;;;;;;2.17;2.03;;;21.80;47.30;;;;;;5091117;28;20051;-42
2021/05/01 09:16:59;;;;;;;2.10;2.00;;;21.80;45.90;;;;;;5090305;28;20190;-35
2021/05/01 09:19:32;;;;;;;2.22;2.13;;;21.90;46.10;;;;;;5097737;28;20467;-41
2021/05/01 09:22:16;;;;;;;2.20;2.10;;;21.90;45.70;;;;;;5098513;28;20071;-45
2021/05/01 09:24:44;;;;;;;2.38;2.17;;;22.00;45.00;;;;;;5100781;28;20122;-40
2021/05/01 09:27:14;;;;;;;2.17;2.08;;;22.10;44.80;;;;;;5097737;28;20044;-41
2021/05/01 09:29:40;;;;;;;3.42;2.28;;;22.00;44.50;;;;;;5091240;28;20113;-41
2021/05/01 09:32:20;;;;;;;3.45;1.92;;;22.00;45.10;;;;;;5074917;28;20529;-41
2021/05/01 09:34:52;;;;;;;2.75;2.65;;;22.00;42.50;;;;;;5087219;28;20044;-42
2021/05/01 09:37:19;;;;;;;3.60;2.65;;;22.00;41.90;;;;;;5081042;28;20104;-43
2021/05/01 09:39:55;;;;;;;2.47;2.30;;;22.00;41.00;;;;;;5103109;28;20056;-43
2021/05/01 09:42:22;;;;;;;4.68;2.30;;;22.00;41.10;;;;;;5087484;28;20092;-47
2021/05/01 09:44:48;;;;;;;2.78;2.58;;;22.10;41.40;;;;;;5087612;28;20081;-43
2021/05/01 09:47:16;;;;;;;3.05;2.75;;;22.10;41.10;;;;;;5070423;28;20055;-43
2021/05/01 09:49:43;;;;;;;3.10;2.90;;;22.10;43.00;;;;;;5092298;28;20046;-42
2021/05/01 09:52:10;;;;;;;2.90;2.70;;;22.10;41.30;;;;;;5068764;28;20047;-41
2021/05/01 09:54:38;;;;;;;2.97;2.67;;;22.20;42.30;;;;;;5097475;28;20047;-42
2021/05/01 09:57:08;;;;;;;3.20;2.80;;;22.20;40.80;;;;;;5090753;28;20509;-44
2021/05/01 09:59:46;;;;;;;5.00;2.90;;;22.20;41.70;;;;;;5093145;28;20043;-43
2021/05/01 10:02:17;;;;;;;2.67;2.50;;;22.20;43.00;;;;;;5093135;28;20104;-41
2021/05/01 10:05:04;;;;;;;2.67;2.50;;;22.20;43.20;;;;;;5092094;28;20051;-41
2021/05/01 10:07:30;;;;;;;2.88;2.58;;;22.20;42.70;;;;;;5091700;28;20143;-43
2021/05/01 10:09:57;;;;;;;2.67;2.47;;;22.30;42.70;;;;;;5098602;28;20048;-41
2021/05/01 10:12:32;;;;;;;2.67;2.47;;;22.40;43.00;;;;;;5096961;28;20046;-43
2021/05/01 10:14:58;;;;;;;3.60;3.30;;;22.40;41.60;;;;;;5083869;28;20043;-42
2021/05/01 10:17:24;;;;;;;4.75;4.45;;;22.40;42.80;;;;;;5078501;28;20387;-46
2021/05/01 10:19:57;;;;;;;4.93;4.55;;;22.40;40.60;;;;;;5077122;28;20093;-42
2021/05/01 10:22:25;;;;;;;4.20;3.90;;;22.30;41.90;;;;;;5090681;28;20059;-40
2021/05/01 10:24:51;;;;;;;4.22;3.83;;;22.40;42.70;;;;;;5093863;28;20526;-40
2021/05/01 10:27:19;;;;;;;4.20;3.90;;;22.40;43.10;;;;;;5086604;28;20047;-40
2021/05/01 10:29:45;;;;;;;4.60;4.30;;;22.50;42.20;;;;;;5098515;28;20097;-42
2021/05/01 10:32:15;;;;;;;4.68;4.28;;;22.60;41.80;;;;;;5079787;28;20044;-41
2021/05/01 10:34:42;;;;;;;6.20;4.50;;;22.70;41.90;;;;;;5082617;28;20044;-42
2021/05/01 10:37:08;;;;;;;4.82;4.43;;;22.70;41.80;;;;;;5083821;28;20051;-46
2021/05/01 10:39:45;;;;;;;5.75;4.75;;;22.70;42.00;;;;;;5086457;28;20092;-39
2021/05/01 10:42:14;;;;;;;7.72;4.72;;;22.70;42.00;;;;;;5095992;28;20048;-41
2021/05/01 10:44:40;;;;;;;5.20;4.80;;;22.70;41.80;;;;;;5091174;28;20073;-43
2021/05/01 10:47:13;;;;;;;4.82;4.50;;;22.70;42.40;;;;;;4919787;28;10000370;-43
2021/05/01 10:49:39;;;;;;;7.80;4.45;;;22.50;42.00;;;;;;5075722;28;20248;-44
2021/05/01 10:52:14;;;;;;;4.53;4.13;;;22.50;42.30;;;;;;5090442;28;20438;-43
2021/05/01 10:54:56;;;;;;;4.63;4.32;;;22.50;42.10;;;;;;5091329;28;20580;-42
2021/05/01 10:57:22;;;;;;;4.90;4.50;;;22.40;42.50;;;;;;5076648;28;20181;-44
2021/05/01 11:00:04;;;;;;;4.45;4.15;;;22.40;42.40;;;;;;5087841;28;20072;-42
2021/05/01 11:02:40;;;;;;;5.63;4.22;;;22.40;42.60;;;;;;5088404;28;20044;-43
2021/05/01 11:05:08;;;;;;;4.50;4.20;;;22.40;42.60;;;;;;5072970;28;20472;-44
2021/05/01 11:07:41;;;;;;;4.57;3.83;;;22.40;42.70;;;;;;5088223;28;20054;-39
2021/05/01 11:10:07;;;;;;;4.28;3.88;;;22.40;42.80;;;;;;5094421;28;20040;-42
2021/05/01 11:12:36;;;;;;;3.97;3.78;;;22.50;43.30;;;;;;5087571;28;21109;-46
2021/05/01 11:15:10;;;;;;;4.43;4.03;;;22.40;43.10;;;;;;5089377;28;20031;-44
2021/05/01 11:18:07;;;;;;;3.50;3.30;;;22.40;43.20;;;;;;5076002;28;20059;-41
2021/05/01 11:20:33;;;;;;;3.40;3.10;;;22.40;43.30;;;;;;5099796;27;20505;-40
2021/05/01 11:22:58;;;;;;;3.58;3.28;;;22.50;43.40;;;;;;5088714;28;20031;-41
2021/05/01 11:25:24;;;;;;;3.55;3.10;;;22.50;43.30;;;;;;5088409;28;20036;-42
2021/05/01 11:27:51;;;;;;;3.40;3.20;;;22.60;43.20;;;;;;5079460;28;20036;-44
2021/05/01 11:30:18;;;;;;;4.05;3.75;;;22.60;43.30;;;;;;5096746;28;20024;-44
2021/05/01 11:32:44;;;;;;;3.42;3.22;;;22.60;43.10;;;;;;5093870;28;20593;-41
2021/05/01 11:35:11;;;;;;;3.22;3.03;;;22.60;43.70;;;;;;5070907;28;20056;-42
2021/05/01 11:37:58;;;;;;;3.20;3.00;;;22.70;42.90;;;;;;5090380;28;20121;-40
2021/05/01 11:40:25;;;;;;;2.72;2.63;;;22.60;44.30;;;;;;5095946;28;20505;-41
2021/05/01 11:42:53;;;;;;;3.05;2.85;;;22.60;43.20;;;;;;5091812;28;20575;-44
2021/05/01 11:45:44;;;;;;;3.35;3.15;;;22.70;42.60;;;;;;5095056;28;20028;-42
2021/05/01 11:48:13;;;;;;;2.80;2.60;;;22.80;42.70;;;;;;5098886;28;20023;-44
2021/05/01 11:50:40;;;;;;;3.33;3.00;;;22.90;42.70;;;;;;5077338;28;20417;-40
2021/05/01 11:53:41;;;;;;;3.22;2.55;;;22.90;42.50;;;;;;5076711;28;20502;-41
2021/05/01 11:56:25;;;;;;;3.30;3.10;;;22.90;42.60;;;;;;5075394;28;20039;-42
2021/05/01 11:58:51;;;;;;;2.75;2.65;;;22.90;42.70;;;;;;5094155;28;20032;-42
2021/05/01 12:01:21;;;;;;;2.65;2.55;;;22.90;42.80;;;;;;5059848;28;20044;-40
2021/05/01 12:03:57;;;;;;;4.55;2.60;;;22.90;42.70;;;;;;5092306;28;20115;-45
2021/05/01 12:06:43;;;;;;;2.70;2.58;;;23.00;42.60;;;;;;5090789;28;20547;-43
2021/05/01 12:09:16;;;;;;;2.10;2.00;;;23.00;42.60;;;;;;5077235;28;20025;-42
2021/05/01 12:11:47;;;;;;;2.38;2.25;;;22.90;42.50;;;;;;5074332;28;20466;-44
2021/05/01 12:14:14;;;;;;;1.80;1.70;;;22.90;42.60;;;;;;5086637;28;20032;-42
2021/05/01 12:16:39;;;;;;;2.03;1.92;;;22.90;42.70;;;;;;5084857;28;20050;-42
2021/05/01 12:19:05;;;;;;;2.38;2.10;;;22.90;42.80;;;;;;5084576;28;20492;-43
2021/05/01 12:21:42;;;;;;;2.10;2.00;;;22.90;43.00;;;;;;5094857;28;20043;-41
2021/05/01 12:24:29;;;;;;;1.90;1.80;;;23.00;42.70;;;;;;5090371;28;20115;-41
2021/05/01 12:26:54;;;;;;;2.15;2.05;;;23.00;42.90;;;;;;5096235;28;20024;-42
2021/05/01 12:29:24;;;;;;;2.42;1.90;;;23.10;42.70;;;;;;5095939;28;20028;-42
2021/05/01 12:31:54;;;;;;;2.03;1.92;;;23.10;42.90;;;;;;5095787;28;20501;-45
2021/05/01 12:34:21;;;;;;;2.25;1.90;;;23.20;42.30;;;;;;5096750;28;20028;-45
2021/05/01 12:36:48;;;;;;;2.17;2.08;;;23.20;42.30;;;;;;5094357;28;20375;-45
2021/05/01 12:39:14;;;;;;;2.20;2.10;;;23.20;42.20;;;;;;5092817;28;20038;-43
2021/05/01 12:41:41;;;;;;;2.05;1.95;;;23.20;42.50;;;;;;5090554;28;20103;-43
2021/05/01 12:44:07;;;;;;;1.83;1.73;;;23.20;42.50;;;;;;5091537;28;20038;-47
2021/05/01 12:46:39;;;;;;;2.00;1.90;;;23.30;42.40;;;;;;5090450;28;20423;-46